Hovedside
METAR-TAF:

METAR-TAF

Lufthavner :

Kuwait, Kuwait

breddegrad: 29-13N, lengdegrad: 047-59E, høyde over havet: 55 m

Gjeldene værobservasjon

Denne rapporten ble laget for 11 minutter siden, klokken 17:00 UTC
Vind 7 kt fra Vest-nordvest
Temperatur 41°C
Luftfuktighet 11%
Trykk 996 hPa
Sikt 10 km eller mer
ingen skyer under 1500 m og ingen bygeskyer

METAR: OKBK 231700Z 30007KT CAVOK 41/05 Q0996 NOSIG

Tid: 20:11 (17:11 UTC)

Varsel

Denne rapporten ble laget for 6 timer og 26 minutter siden, klokken 10:45 UTC
Varsel gyldig fra 23. klokken 12 UTC til 24. klokken 18 UTC
Vind 10 kt fra Nord
Sikt: 8000 m
Skyfri himmel

TAF: OKBK 231045Z 2312/2418 35010KT 8000 SKC

Værobservasjoner og værvarsel for over 4000 flyplasser (METAR- og TAF-rapporter).

Tilgjengelige stasjoner er representert av de røde og gule prikkene på kartet.

Hold musepekeren over prikken for å se navnet på stasjonen.

Klikk så for å se værobservasjoner og -varsler.

For å forandre kartet kan du klikke på den grønne knappen med svart kryss for å zoome inn, på den grønne knappen med strek for å zoome ut, eller på de grønne pilene for å se tilstøtende kart.


METAR-TAF: